Time;durP1;ratioP1;P1;durP2;ratioP2;P2;SDS_P1;SDS_P2;PMS_P1;PMS_P2;Temp;Humidity;BMP_temperature;BMP_pressure;BME280_temperature;BME280_humidity;BME280_pressure;Samples;Min_cycle;Max_cycle;Signal;HPM_P1;HPM_P2
2023/04/24 00:00:32;;;;;;;15.65;7.47;;;;;;;12.09;54.04;150328.88;5117762;28;20060;-67
2023/04/24 00:02:58;;;;;;;20.30;7.45;;;;;;;12.13;54.56;150339.13;5125944;28;20031;-67
2023/04/24 00:05:24;;;;;;;23.27;7.10;;;;;;;12.09;53.33;150330.13;5126009;28;20019;-67
2023/04/24 00:07:53;;;;;;;17.15;7.05;;;;;;;12.08;54.28;150327.59;5125584;28;20128;-68
2023/04/24 00:10:19;;;;;;;13.55;7.65;;;;;;;11.80;54.47;150255.63;5125872;28;20027;-67
2023/04/24 00:12:46;;;;;;;15.30;7.53;;;;;;;12.04;54.17;150316.00;5125980;28;20020;-67
2023/04/24 00:15:11;;;;;;;15.38;7.35;;;;;;;12.04;53.77;150316.00;5120749;28;20034;-67
2023/04/24 00:17:37;;;;;;;13.93;6.82;;;;;;;12.04;53.87;150316.00;5122233;28;20066;-67
2023/04/24 00:20:04;;;;;;;14.32;7.35;;;;;;;12.01;53.16;150309.56;5125869;28;20035;-68
2023/04/24 00:22:30;;;;;;;15.45;7.15;;;;;;;12.02;53.78;150310.88;5109206;28;20332;-66
2023/04/24 00:24:56;;;;;;;15.75;6.80;;;;;;;12.02;53.70;150312.16;5105226;28;20027;-67
2023/04/24 00:27:22;;;;;;;18.55;7.43;;;;;;;12.00;53.71;150305.72;5120313;28;20027;-67
2023/04/24 00:29:48;;;;;;;15.07;7.57;;;;;;;11.99;54.06;150303.19;5123948;28;20031;-67
2023/04/24 00:32:14;;;;;;;17.63;7.88;;;;;;;12.00;53.13;150305.72;5119050;28;20031;-68
2023/04/24 00:34:40;;;;;;;18.27;7.53;;;;;;;11.96;53.62;150295.50;5107189;28;20032;-67
2023/04/24 00:37:05;;;;;;;19.08;8.02;;;;;;;11.96;53.46;150295.50;5125046;28;20023;-67
2023/04/24 00:39:31;;;;;;;17.60;7.80;;;;;;;11.95;54.04;150294.19;5117599;28;20027;-67
2023/04/24 00:41:57;;;;;;;17.30;7.55;;;;;;;11.89;53.32;150280.00;5113927;28;20077;-66
2023/04/24 00:44:23;;;;;;;16.08;7.40;;;;;;;11.88;53.49;150277.44;5104816;28;20308;-68
2023/04/24 00:46:54;;;;;;;18.48;7.95;;;;;;;11.85;53.31;150269.75;5115028;28;20193;-67
2023/04/24 00:49:23;;;;;;;12.27;6.77;;;;;;;11.84;53.82;150265.91;5110744;28;20028;-69
2023/04/24 00:51:50;;;;;;;16.83;7.57;;;;;;;11.80;52.81;150255.63;5115074;28;20032;-67
2023/04/24 00:54:17;;;;;;;19.75;8.15;;;;;;;11.71;53.84;150235.13;5125496;28;20039;-65
2023/04/24 00:56:44;;;;;;;18.00;6.95;;;;;;;11.76;53.51;150246.66;5124711;28;20035;-65
2023/04/24 00:59:11;;;;;;;19.70;7.75;;;;;;;11.71;53.88;150233.81;5125134;28;20038;-65
2023/04/24 01:01:36;;;;;;;17.92;7.85;;;;;;;11.64;55.31;150217.09;5115376;28;20031;-64
2023/04/24 01:04:02;;;;;;;17.73;7.82;;;;;;;11.60;55.50;150206.88;5112588;28;20024;-63
2023/04/24 01:06:30;;;;;;;19.52;6.95;;;;;;;11.61;55.73;150208.16;5107853;28;20051;-63
2023/04/24 01:08:58;;;;;;;18.95;7.50;;;;;;;11.56;55.16;150197.88;5121566;28;20080;-65
2023/04/24 01:11:25;;;;;;;20.77;8.48;;;;;;;11.39;55.51;150155.53;5110132;28;20024;-66
2023/04/24 01:13:51;;;;;;;21.98;7.72;;;;;;;11.46;54.71;150172.22;5105873;28;20204;-65
2023/04/24 01:16:20;;;;;;;18.08;7.10;;;;;;;11.45;54.97;150168.38;5123559;28;20049;-65
2023/04/24 01:18:46;;;;;;;18.40;7.05;;;;;;;11.43;55.48;150163.22;5114309;28;20032;-63
2023/04/24 01:21:14;;;;;;;12.18;7.10;;;;;;;11.42;55.51;150161.94;5093304;28;20027;-65
2023/04/24 01:23:39;;;;;;;20.02;7.82;;;;;;;11.39;56.01;150154.25;5085503;28;20063;-63
2023/04/24 01:26:05;;;;;;;17.05;7.88;;;;;;;11.36;56.07;150146.56;5123952;28;20027;-65
2023/04/24 01:28:31;;;;;;;18.33;7.18;;;;;;;11.32;55.95;150136.28;5123998;28;20078;-64
2023/04/24 01:30:57;;;;;;;21.92;8.23;;;;;;;11.32;56.11;150137.56;5123893;28;20094;-64
2023/04/24 01:33:22;;;;;;;17.45;7.90;;;;;;;11.18;56.78;150101.63;5124041;28;20141;-64
2023/04/24 01:35:49;;;;;;;16.77;7.00;;;;;;;11.19;56.59;150105.47;5123851;28;20024;-64
2023/04/24 01:38:15;;;;;;;16.58;7.35;;;;;;;11.21;56.54;150110.59;5124217;28;20027;-65
2023/04/24 01:40:40;;;;;;;18.95;7.50;;;;;;;11.08;57.14;150076.00;5107654;28;20216;-64
2023/04/24 01:43:07;;;;;;;14.38;7.22;;;;;;;10.99;57.65;150054.19;5111710;28;20036;-64
2023/04/24 01:45:32;;;;;;;18.38;7.25;;;;;;;11.03;57.12;150064.41;5087523;28;20032;-65
2023/04/24 01:47:59;;;;;;;14.73;7.55;;;;;;;10.95;57.25;150043.91;5123766;28;20295;-65
2023/04/24 01:50:24;;;;;;;15.57;7.10;;;;;;;10.97;57.81;150050.28;5123916;28;20028;-65
2023/04/24 01:52:50;;;;;;;24.25;8.10;;;;;;;10.97;57.76;150050.28;5105569;28;20079;-64
2023/04/24 01:55:16;;;;;;;17.73;8.27;;;;;;;10.99;58.22;150054.19;5116890;28;20027;-63
2023/04/24 01:57:42;;;;;;;18.90;8.15;;;;;;;10.97;57.76;150050.28;5114881;28;20020;-63
2023/04/24 02:00:09;;;;;;;21.52;7.85;;;;;;;10.95;57.80;150043.91;5103503;28;20258;-63
2023/04/24 02:02:35;;;;;;;16.40;7.65;;;;;;;10.97;57.77;150049.03;5120466;28;20027;-64
2023/04/24 02:05:00;;;;;;;18.38;7.28;;;;;;;10.98;57.24;150051.59;5104194;28;20488;-63
2023/04/24 02:07:26;;;;;;;17.02;7.32;;;;;;;10.96;57.14;150047.75;5118896;28;20023;-65
2023/04/24 02:09:52;;;;;;;19.73;8.00;;;;;;;10.94;57.70;150041.34;5113848;28;20029;-65
2023/04/24 02:12:17;;;;;;;18.50;6.88;;;;;;;10.94;57.97;150041.34;5100630;28;20023;-63
2023/04/24 02:14:43;;;;;;;19.33;7.35;;;;;;;10.93;57.14;150040.06;5123230;28;20047;-65
2023/04/24 02:17:09;;;;;;;18.25;8.10;;;;;;;10.94;57.81;150042.59;5123244;28;20031;-65
2023/04/24 02:19:35;;;;;;;18.30;8.02;;;;;;;10.93;57.88;150040.06;5123255;28;20029;-64
2023/04/24 02:22:01;;;;;;;18.77;7.95;;;;;;;10.97;58.34;150049.03;5112440;28;20035;-64
2023/04/24 02:24:26;;;;;;;16.38;7.70;;;;;;;10.98;57.82;150052.88;5103010;28;20034;-64
2023/04/24 02:26:52;;;;;;;13.82;7.35;;;;;;;10.98;56.83;150052.88;5112371;28;20370;-65
2023/04/24 02:29:17;;;;;;;14.52;7.35;;;;;;;10.92;58.06;150036.22;5102835;28;20044;-64
2023/04/24 02:31:43;;;;;;;16.40;8.10;;;;;;;10.95;57.84;150043.91;5112020;28;20363;-65
2023/04/24 02:34:09;;;;;;;17.85;7.60;;;;;;;10.97;57.02;150049.03;5123186;28;20031;-65
2023/04/24 02:36:34;;;;;;;20.10;8.35;;;;;;;10.94;57.41;150042.59;5115553;28;20228;-65
2023/04/24 02:39:01;;;;;;;19.42;8.02;;;;;;;11.03;57.47;150064.41;5104965;28;20023;-64
2023/04/24 02:41:31;;;;;;;16.45;8.43;;;;;;;11.04;57.18;150066.97;5122691;28;20358;-65
2023/04/24 02:43:57;;;;;;;21.42;8.10;;;;;;;11.04;57.76;150068.28;5104487;28;20032;-65
2023/04/24 02:46:23;;;;;;;19.92;7.80;;;;;;;11.09;57.58;150079.84;5109424;28;20090;-65
2023/04/24 02:48:49;;;;;;;24.02;9.27;;;;;;;11.10;57.64;150081.09;5114265;28;20031;-64
2023/04/24 02:51:14;;;;;;;18.63;8.57;;;;;;;11.12;57.32;150087.53;5103788;28;20204;-64
2023/04/24 02:53:40;;;;;;;18.27;8.43;;;;;;;11.00;57.73;150058.03;5102178;28;20072;-65
2023/04/24 02:56:06;;;;;;;16.55;8.70;;;;;;;11.04;57.43;150066.97;5100430;28;20095;-64
2023/04/24 02:58:31;;;;;;;20.02;8.80;;;;;;;11.05;57.67;150069.56;5102243;28;20024;-64
2023/04/24 03:00:57;;;;;;;20.00;9.07;;;;;;;11.06;57.64;150072.13;5094050;28;20023;-65
2023/04/24 03:03:23;;;;;;;23.27;9.30;;;;;;;11.19;57.12;150105.47;5117447;28;20039;-65
2023/04/24 03:05:49;;;;;;;22.67;8.27;;;;;;;11.40;56.78;150156.78;5104532;28;20065;-63
2023/04/24 03:08:16;;;;;;;18.27;8.80;;;;;;;11.53;56.30;150190.19;5122987;28;20319;-63
2023/04/24 03:10:42;;;;;;;24.13;9.18;;;;;;;11.53;56.35;150190.19;5107331;28;20328;-65
2023/04/24 03:13:07;;;;;;;22.55;9.30;;;;;;;11.65;56.44;150219.69;5122512;28;20035;-64
2023/04/24 03:15:33;;;;;;;24.58;10.35;;;;;;;12.00;55.42;150305.72;5122108;28;20020;-64
2023/04/24 03:18:00;;;;;;;20.65;9.30;;;;;;;12.03;54.69;150314.75;5122356;28;20313;-65
2023/04/24 03:20:26;;;;;;;20.08;9.77;;;;;;;12.22;54.18;150360.97;5121590;28;20039;-65
2023/04/24 03:22:51;;;;;;;27.13;9.65;;;;;;;12.40;54.48;150405.94;5104567;28;20016;-64
2023/04/24 03:25:17;;;;;;;30.42;10.05;;;;;;;12.52;54.58;150436.72;5117318;28;20276;-64
2023/04/24 03:27:43;;;;;;;25.55;10.02;;;;;;;12.62;53.64;150461.13;5118644;28;20038;-64
2023/04/24 03:30:09;;;;;;;24.20;10.55;;;;;;;12.85;52.30;150517.66;5106350;28;20091;-64
2023/04/24 03:32:35;;;;;;;22.52;10.30;;;;;;;12.85;52.50;150517.66;5122975;28;20092;-65
2023/04/24 03:35:00;;;;;;;29.52;11.07;;;;;;;12.86;52.83;150521.50;5126280;28;20023;-65
2023/04/24 03:37:26;;;;;;;26.45;10.93;;;;;;;12.99;52.26;150552.34;5108173;28;20027;-64
2023/04/24 03:39:52;;;;;;;29.15;11.35;;;;;;;13.17;52.24;150598.59;5117590;28;20024;-64
2023/04/24 03:42:18;;;;;;;24.05;11.73;;;;;;;13.54;51.55;150689.88;5098002;28;20048;-65
2023/04/24 03:44:43;;;;;;;26.30;10.70;;;;;;;13.84;49.99;150765.75;5106041;28;20039;-65
2023/04/24 03:47:09;;;;;;;38.38;11.50;;;;;;;14.22;49.71;150860.84;5125548;28;20028;-65
2023/04/24 03:49:35;;;;;;;32.33;11.43;;;;;;;14.45;47.87;150918.75;5111070;28;20024;-63
2023/04/24 03:52:00;;;;;;;32.42;11.70;;;;;;;14.81;47.39;151007.56;5117776;28;20027;-66
2023/04/24 03:54:26;;;;;;;22.15;11.77;;;;;;;14.87;45.75;151021.72;5121221;28;20313;-66
2023/04/24 03:56:51;;;;;;;19.23;11.95;;;;;;;14.78;44.35;150999.84;5115784;28;20039;-65
2023/04/24 03:59:17;;;;;;;23.05;11.82;;;;;;;14.66;45.05;150970.25;5105789;28;20536;-66
2023/04/24 04:01:43;;;;;;;31.05;12.10;;;;;;;14.62;45.57;150961.25;5121001;28;20049;-66
2023/04/24 04:04:08;;;;;;;28.25;12.27;;;;;;;14.60;46.29;150956.03;5114884;28;20024;-66
2023/04/24 04:06:36;;;;;;;26.08;12.50;;;;;;;14.52;45.25;150935.44;5095427;28;20089;-66
2023/04/24 04:09:02;;;;;;;24.92;11.90;;;;;;;14.48;46.10;150925.19;5124774;28;20219;-65
2023/04/24 04:11:29;;;;;;;22.52;12.82;;;;;;;14.49;44.67;150927.75;5125631;28;20055;-66
2023/04/24 04:13:56;;;;;;;30.02;13.93;;;;;;;14.49;42.87;150927.75;5126187;28;20027;-65
2023/04/24 04:16:22;;;;;;;29.67;15.52;;;;;;;14.57;44.13;150947.06;5125508;28;20095;-66
2023/04/24 04:18:48;;;;;;;29.95;14.65;;;;;;;14.60;44.65;150956.03;5125741;28;20024;-65
2023/04/24 04:21:13;;;;;;;25.88;13.95;;;;;;;14.64;44.64;150966.38;5107287;28;20054;-64
2023/04/24 04:23:39;;;;;;;20.02;12.63;;;;;;;14.73;42.92;150986.97;5125375;28;20043;-65
2023/04/24 04:26:06;;;;;;;21.98;12.75;;;;;;;14.81;43.70;151007.56;5110934;28;20028;-64
2023/04/24 04:28:32;;;;;;;22.65;12.00;;;;;;;14.84;43.30;151015.28;5111405;28;20048;-67
2023/04/24 04:30:57;;;;;;;20.25;12.90;;;;;;;14.87;43.74;151021.72;5107934;28;20307;-69
2023/04/24 04:33:24;;;;;;;24.92;13.48;;;;;;;14.87;41.20;151023.00;5120874;28;20088;-63
2023/04/24 04:35:51;;;;;;;20.17;13.00;;;;;;;14.95;41.94;151043.59;5106064;28;20040;-65
2023/04/24 04:38:20;;;;;;;20.42;12.38;;;;;;;15.04;42.42;151065.47;5104809;28;20027;-64
2023/04/24 04:40:46;;;;;;;20.77;12.70;;;;;;;15.10;42.55;151080.88;5108766;28;20054;-65
2023/04/24 04:43:13;;;;;;;29.08;12.93;;;;;;;15.08;40.54;151074.44;5125054;28;20032;-64
2023/04/24 04:45:40;;;;;;;17.30;11.82;;;;;;;15.15;40.76;151092.50;5119340;28;20047;-65
2023/04/24 04:48:07;;;;;;;36.13;14.23;;;;;;;15.28;41.70;151124.66;5125128;28;20027;-65
2023/04/24 04:50:33;;;;;;;19.95;12.32;;;;;;;15.29;40.60;151128.53;5125011;28;20036;-65
2023/04/24 04:52:58;;;;;;;18.73;11.60;;;;;;;15.26;38.96;151120.75;5106575;28;20055;-64
2023/04/24 04:55:25;;;;;;;23.88;13.15;;;;;;;15.28;39.21;151125.94;5104120;28;20408;-66
2023/04/24 04:57:51;;;;;;;21.27;12.05;;;;;;;15.28;38.76;151125.94;5123590;28;20034;-63
2023/04/24 05:00:16;;;;;;;23.38;12.07;;;;;;;15.38;38.85;151149.09;5121525;28;20035;-63
2023/04/24 05:02:42;;;;;;;21.52;13.23;;;;;;;15.68;39.34;151226.31;5122346;28;20205;-66
2023/04/24 05:05:08;;;;;;;20.90;12.85;;;;;;;16.34;38.48;151391.19;5107119;28;20020;-64
2023/04/24 05:07:34;;;;;;;24.02;11.40;;;;;;;17.07;35.75;151574.19;5101174;28;20020;-64
2023/04/24 05:10:00;;;;;;;23.02;12.02;;;;;;;17.61;34.91;151708.22;5113436;28;20069;-64
2023/04/24 05:12:25;;;;;;;22.60;11.95;;;;;;;17.83;34.67;151762.34;5124127;28;20028;-64
2023/04/24 05:14:51;;;;;;;19.33;11.70;;;;;;;18.15;33.65;151843.66;5124793;28;20020;-64
2023/04/24 05:17:17;;;;;;;21.00;11.88;;;;;;;18.22;33.77;151860.41;5119047;28;20088;-63
2023/04/24 05:19:42;;;;;;;25.40;12.50;;;;;;;18.17;33.86;151847.50;5102937;28;20031;-64
2023/04/24 05:22:09;;;;;;;21.08;12.57;;;;;;;17.94;34.10;151790.75;5123661;28;20113;-64
2023/04/24 05:24:35;;;;;;;18.77;11.52;;;;;;;18.06;34.23;151820.44;5100646;28;20032;-63
2023/04/24 05:27:02;;;;;;;19.83;11.45;;;;;;;18.01;34.58;151808.81;5115397;28;20016;-63
2023/04/24 05:29:30;;;;;;;23.67;11.07;;;;;;;18.14;35.36;151839.78;5085864;28;20206;-63
2023/04/24 05:31:56;;;;;;;19.55;11.88;;;;;;;18.00;34.22;151804.94;5120154;28;20072;-63
2023/04/24 05:34:22;;;;;;;17.88;11.05;;;;;;;18.20;34.42;151855.25;5118704;28;20027;-63
2023/04/24 05:36:48;;;;;;;24.73;14.32;;;;;;;18.60;34.32;151955.88;5123879;28;20335;-62
2023/04/24 05:39:15;;;;;;;19.55;11.63;;;;;;;18.72;32.87;151986.81;5093164;28;20020;-65
2023/04/24 05:41:40;;;;;;;23.17;12.80;;;;;;;19.08;32.94;152077.22;5123727;28;20039;-64
2023/04/24 05:44:06;;;;;;;25.42;12.10;;;;;;;19.31;33.73;152133.94;5105724;28;20031;-63
2023/04/24 05:46:32;;;;;;;20.33;10.25;;;;;;;19.80;32.72;152256.66;5111536;28;20345;-64
2023/04/24 05:48:57;;;;;;;21.10;9.43;;;;;;;19.99;30.87;152304.41;5115004;28;20058;-64
2023/04/24 05:51:24;;;;;;;15.15;9.48;;;;;;;20.24;30.13;152366.41;5110308;28;20061;-63
2023/04/24 05:53:49;;;;;;;17.13;9.75;;;;;;;20.50;30.41;152433.53;5105755;28;20101;-64
2023/04/24 05:56:15;;;;;;;19.67;10.20;;;;;;;20.79;31.14;152505.97;5110257;28;20031;-65
2023/04/24 05:58:41;;;;;;;26.63;11.13;;;;;;;20.89;31.67;152529.19;5109251;28;20032;-64
2023/04/24 06:01:07;;;;;;;22.58;10.65;;;;;;;21.21;30.53;152611.88;5111980;28;20031;-64
2023/04/24 06:03:33;;;;;;;18.58;10.88;;;;;;;21.34;30.05;152642.91;5118607;28;20020;-64
2023/04/24 06:05:59;;;;;;;21.08;11.48;;;;;;;20.85;28.38;152521.47;5106845;28;20034;-64
2023/04/24 06:08:25;;;;;;;22.02;10.88;;;;;;;20.69;28.45;152480.09;5122510;28;20020;-63
2023/04/24 06:10:51;;;;;;;20.00;12.10;;;;;;;20.64;29.23;152467.16;5091702;28;20273;-65
2023/04/24 06:13:16;;;;;;;22.98;11.60;;;;;;;20.79;29.16;152504.63;5094202;28;20073;-63
2023/04/24 06:15:43;;;;;;;19.75;10.48;;;;;;;20.49;29.30;152431.00;5104521;28;20328;-64
2023/04/24 06:18:10;;;;;;;19.25;10.38;;;;;;;20.81;29.04;152509.84;5121788;28;20032;-63
2023/04/24 06:20:36;;;;;;;17.45;10.05;;;;;;;21.02;28.50;152562.78;5103313;28;20032;-65
2023/04/24 06:23:01;;;;;;;21.30;9.68;;;;;;;20.63;28.75;152465.84;5123267;28;20027;-66
2023/04/24 06:25:28;;;;;;;20.02;9.65;;;;;;;21.16;29.02;152597.66;5092626;28;20035;-66
2023/04/24 06:27:54;;;;;;;17.83;9.07;;;;;;;21.34;27.92;152642.91;5104548;28;20032;-66
2023/04/24 06:30:20;;;;;;;8.95;6.75;;;;;;;21.74;27.39;152742.50;5122377;28;20031;-64
2023/04/24 06:32:45;;;;;;;14.40;8.63;;;;;;;21.59;26.86;152704.97;5122923;28;20080;-65
2023/04/24 06:35:12;;;;;;;11.48;7.72;;;;;;;21.81;26.66;152761.88;5122843;28;20070;-66
2023/04/24 06:37:39;;;;;;;14.30;8.70;;;;;;;21.78;26.61;152754.13;5108608;28;20225;-66
2023/04/24 06:40:06;;;;;;;22.08;8.95;;;;;;;22.12;26.38;152838.13;5111678;28;20030;-67
2023/04/24 06:42:32;;;;;;;24.90;8.57;;;;;;;22.28;26.46;152878.25;5109586;28;20031;-65
2023/04/24 06:44:57;;;;;;;25.98;9.35;;;;;;;22.47;26.97;152927.41;5102778;28;20028;-69
2023/04/24 06:47:23;;;;;;;21.88;8.98;;;;;;;22.26;26.75;152873.06;5121911;28;20035;-65
2023/04/24 06:49:50;;;;;;;21.02;9.35;;;;;;;22.43;26.79;152917.06;5107357;28;20056;-65
2023/04/24 06:52:16;;;;;;;41.38;9.10;;;;;;;22.23;25.78;152867.91;5112930;28;20090;-66
2023/04/24 06:54:42;;;;;;;16.65;8.20;;;;;;;22.30;25.81;152883.41;5116861;28;20115;-65
2023/04/24 06:57:08;;;;;;;15.52;7.13;;;;;;;22.27;26.07;152876.94;5103026;28;20042;-66
2023/04/24 06:59:34;;;;;;;11.75;7.40;;;;;;;22.45;25.81;152921.00;5122056;28;20051;-66
2023/04/24 07:02:00;;;;;;;16.50;7.82;;;;;;;22.58;25.94;152955.88;5122293;28;20354;-65
2023/04/24 07:04:26;;;;;;;18.05;7.80;;;;;;;22.95;25.68;153047.72;5122141;28;20043;-64
2023/04/24 07:06:54;;;;;;;14.98;7.88;;;;;;;22.49;24.90;152931.28;5115315;28;20034;-65
2023/04/24 07:09:20;;;;;;;15.27;8.05;;;;;;;22.96;24.82;153050.34;5104826;28;20063;-66
2023/04/24 07:11:45;;;;;;;13.35;8.35;;;;;;;23.23;24.74;153118.94;5122388;28;20054;-66
2023/04/24 07:14:12;;;;;;;15.18;7.53;;;;;;;23.60;25.16;153212.13;5091395;28;20034;-66
2023/04/24 07:16:37;;;;;;;14.88;7.82;;;;;;;24.04;24.78;153322.22;5096977;28;20353;-65
2023/04/24 07:19:03;;;;;;;15.77;7.47;;;;;;;24.10;23.62;153337.72;5122194;28;20047;-67
2023/04/24 07:21:31;;;;;;;11.65;6.47;;;;;;;24.51;23.11;153440.00;5118480;28;20209;-67
2023/04/24 07:23:56;;;;;;;13.75;7.10;;;;;;;24.59;23.35;153459.44;5101862;28;20081;-68
2023/04/24 07:26:22;;;;;;;11.73;6.53;;;;;;;24.21;23.22;153364.88;5121401;28;20311;-67
2023/04/24 07:28:47;;;;;;;10.18;6.30;;;;;;;24.48;23.03;153432.22;5107603;28;20069;-66
2023/04/24 07:31:13;;;;;;;14.18;6.57;;;;;;;23.59;22.14;153208.25;5111536;28;20046;-66
2023/04/24 07:33:39;;;;;;;7.13;5.80;;;;;;;23.80;23.16;153261.31;5122074;28;20331;-67
2023/04/24 07:36:05;;;;;;;12.27;6.22;;;;;;;23.77;23.13;153254.84;5122058;28;20031;-67
2023/04/24 07:38:30;;;;;;;17.67;6.63;;;;;;;23.61;23.85;153214.72;5101626;28;20340;-67
2023/04/24 07:40:56;;;;;;;9.38;5.90;;;;;;;23.47;25.29;153178.44;5117462;28;20027;-67
2023/04/24 07:43:23;;;;;;;8.15;5.55;;;;;;;23.39;24.21;153159.06;5117841;28;20084;-66
2023/04/24 07:45:50;;;;;;;9.55;5.63;;;;;;;22.74;23.27;152994.69;5107708;28;20051;-67
2023/04/24 07:48:17;;;;;;;14.93;5.78;;;;;;;22.99;23.91;153056.75;5120109;28;20039;-68
2023/04/24 07:50:44;;;;;;;7.95;4.95;;;;;;;23.06;24.77;153076.19;5083481;28;20062;-66
2023/04/24 07:53:09;;;;;;;16.77;6.80;;;;;;;22.50;24.17;152935.22;5101769;28;20051;-66
2023/04/24 07:55:35;;;;;;;22.15;6.18;;;;;;;22.62;23.25;152964.94;5114171;28;20250;-66
2023/04/24 07:58:01;;;;;;;10.32;5.55;;;;;;;22.39;23.78;152906.75;5110664;28;20089;-68
2023/04/24 08:00:26;;;;;;;11.45;5.97;;;;;;;22.75;23.88;152998.56;5118734;28;20100;-67
2023/04/24 08:02:52;;;;;;;11.00;5.97;;;;;;;22.26;23.71;152873.06;5101593;28;20028;-67
2023/04/24 08:05:18;;;;;;;12.25;5.82;;;;;;;22.22;23.83;152865.31;5120439;28;20185;-66
2023/04/24 08:07:45;;;;;;;11.52;5.70;;;;;;;21.55;24.39;152695.97;5121669;28;20141;-66
2023/04/24 08:10:11;;;;;;;14.25;11.10;;;;;;;21.89;25.10;152781.28;5113521;28;20040;-67
2023/04/24 08:12:37;;;;;;;12.07;5.72;;;;;;;21.90;24.92;152783.84;5109539;28;20089;-67
2023/04/24 08:15:04;;;;;;;12.07;6.45;;;;;;;22.29;25.31;152880.81;5125728;28;20031;-68
2023/04/24 08:17:30;;;;;;;8.18;5.97;;;;;;;22.18;24.51;152854.97;5124603;28;20050;-67
2023/04/24 08:20:01;;;;;;;13.15;6.25;;;;;;;22.20;25.27;152858.84;5109885;28;20135;-68
2023/04/24 08:22:27;;;;;;;10.87;5.77;;;;;;;22.49;25.32;152932.63;5116339;28;20064;-69
2023/04/24 08:24:53;;;;;;;8.98;5.88;;;;;;;22.78;24.69;153005.03;5118846;28;20032;-67
2023/04/24 08:27:19;;;;;;;11.00;5.95;;;;;;;22.59;23.43;152957.19;5087448;28;20193;-68
2023/04/24 08:29:45;;;;;;;13.07;6.20;;;;;;;22.53;24.21;152942.97;5104463;28;20043;-66
2023/04/24 08:32:10;;;;;;;7.72;5.63;;;;;;;22.49;23.55;152931.28;5115445;28;20061;-68
2023/04/24 08:34:36;;;;;;;8.63;5.80;;;;;;;22.32;24.02;152888.56;5106304;28;20034;-67
2023/04/24 08:37:02;;;;;;;11.93;6.43;;;;;;;22.19;23.91;152856.22;5117325;28;20030;-65
2023/04/24 08:39:28;;;;;;;10.38;5.65;;;;;;;22.44;24.18;152919.66;5107331;28;20047;-66
2023/04/24 08:41:55;;;;;;;12.48;6.03;;;;;;;22.77;23.63;153001.16;5125119;28;20034;-66
2023/04/24 08:44:21;;;;;;;13.18;6.30;;;;;;;23.14;24.02;153095.63;5106681;28;20061;-66
2023/04/24 08:46:48;;;;;;;9.85;5.45;;;;;;;22.85;23.17;153023.13;5118742;28;20023;-67
2023/04/24 08:49:17;;;;;;;11.73;5.60;;;;;;;23.04;24.10;153069.72;5116042;28;20047;-65
2023/04/24 08:51:44;;;;;;;8.88;6.07;;;;;;;23.16;23.45;153099.50;5107886;28;20038;-66
2023/04/24 08:54:12;;;;;;;9.57;5.72;;;;;;;22.64;23.58;152968.81;5104881;28;20039;-65
2023/04/24 08:56:39;;;;;;;9.13;6.13;;;;;;;22.64;23.23;152968.81;5124937;28;20313;-65
2023/04/24 08:59:06;;;;;;;6.57;5.32;;;;;;;23.04;22.78;153069.72;5108591;28;20093;-66
2023/04/24 09:01:35;;;;;;;6.72;5.63;;;;;;;23.06;22.77;153074.91;5115909;28;20145;-66
2023/04/24 09:04:04;;;;;;;8.38;6.20;;;;;;;23.08;23.28;153081.34;5124763;28;20047;-67
2023/04/24 09:06:32;;;;;;;9.43;6.03;;;;;;;23.30;23.97;153135.78;5121836;28;20024;-66
2023/04/24 09:09:01;;;;;;;9.38;5.80;;;;;;;23.38;23.43;153156.44;5104109;28;20032;-66
2023/04/24 09:11:27;;;;;;;9.45;5.53;;;;;;;23.75;23.02;153249.63;5123468;28;20085;-65
2023/04/24 09:13:54;;;;;;;9.40;7.72;;;;;;;23.83;23.79;153269.06;5117441;28;20043;-65
2023/04/24 09:16:20;;;;;;;8.10;5.72;;;;;;;23.96;22.96;153301.47;5124926;28;20031;-65
2023/04/24 09:18:46;;;;;;;8.80;6.85;;;;;;;23.91;22.98;153289.84;5122004;28;20090;-66
2023/04/24 09:21:11;;;;;;;10.75;6.68;;;;;;;23.40;22.72;153161.66;5122014;28;20039;-66
2023/04/24 09:23:38;;;;;;;10.63;6.28;;;;;;;23.40;22.61;153160.31;5123861;28;20034;-65
2023/04/24 09:26:07;;;;;;;8.10;5.68;;;;;;;23.48;23.32;153181.03;5121833;28;20095;-66
2023/04/24 09:28:36;;;;;;;9.77;5.80;;;;;;;23.21;23.56;153112.47;5121143;28;20043;-66
2023/04/24 09:31:22;;;;;;;9.38;5.72;;;;;;;22.72;23.10;152990.81;5104437;28;20087;-65
2023/04/24 09:33:56;;;;;;;10.40;6.13;;;;;;;22.80;23.50;153008.91;5121611;28;20300;-65
2023/04/24 09:36:42;;;;;;;9.18;5.85;;;;;;;22.71;23.49;152988.22;5122453;28;20031;-65
2023/04/24 09:39:16;;;;;;;9.85;5.90;;;;;;;22.60;24.04;152958.47;5123528;28;20386;-65
2023/04/24 09:41:52;;;;;;;8.98;5.60;;;;;;;22.47;24.66;152927.41;5122299;28;20016;-65
2023/04/24 09:44:20;;;;;;;7.45;5.78;;;;;;;22.63;23.09;152967.56;5122001;28;20230;-65
2023/04/24 09:46:58;;;;;;;8.88;6.07;;;;;;;21.94;23.88;152792.91;5121700;28;20040;-67
2023/04/24 09:49:28;;;;;;;6.03;5.10;;;;;;;22.33;23.61;152892.53;5115325;28;20084;-66
2023/04/24 09:52:05;;;;;;;6.82;5.50;;;;;;;22.26;24.54;152874.38;5121067;28;20120;-66
2023/04/24 09:54:31;;;;;;;10.05;5.72;;;;;;;22.14;23.66;152844.59;5123442;28;20265;-66
2023/04/24 09:56:56;;;;;;;12.68;6.00;;;;;;;22.26;23.28;152873.06;5123417;28;20084;-66
2023/04/24 09:59:22;;;;;;;6.85;5.95;;;;;;;22.46;23.54;152924.88;5123566;28;20046;-66
2023/04/24 10:01:49;;;;;;;11.27;5.70;;;;;;;22.02;23.35;152814.88;5109730;28;20035;-65
2023/04/24 10:04:19;;;;;;;10.20;6.05;;;;;;;21.82;23.38;152763.16;5120454;28;20035;-66
2023/04/24 10:06:45;;;;;;;9.85;5.20;;;;;;;21.89;23.29;152781.28;5119318;28;20043;-66
2023/04/24 10:09:12;;;;;;;14.18;5.35;;;;;;;21.94;24.14;152794.19;5119869;28;20096;-67
2023/04/24 10:11:43;;;;;;;6.30;5.70;;;;;;;21.99;23.56;152805.81;5119107;28;20024;-67
2023/04/24 10:14:12;;;;;;;6.88;5.90;;;;;;;22.13;23.67;152840.72;5121095;28;20019;-66
2023/04/24 10:16:40;;;;;;;6.18;5.13;;;;;;;22.18;23.43;152854.97;5122435;28;20035;-66
2023/04/24 10:19:06;;;;;;;7.38;6.15;;;;;;;22.38;23.39;152905.44;5121018;28;20525;-67
2023/04/24 10:21:32;;;;;;;8.00;5.03;;;;;;;22.22;23.33;152864.03;5118677;28;20072;-66
2023/04/24 10:23:59;;;;;;;8.23;5.85;;;;;;;22.28;23.85;152879.53;5121886;28;20024;-67
2023/04/24 10:26:27;;;;;;;7.78;5.63;;;;;;;22.46;23.69;152923.53;5121891;28;20372;-66
2023/04/24 10:28:54;;;;;;;6.85;5.22;;;;;;;22.41;23.48;152911.91;5103286;28;20097;-67
2023/04/24 10:31:21;;;;;;;7.43;5.15;;;;;;;22.47;23.34;152926.13;5097780;28;20031;-66
2023/04/24 10:33:47;;;;;;;6.38;5.72;;;;;;;22.53;23.43;152942.97;5116845;28;20026;-67
2023/04/24 10:36:15;;;;;;;8.02;5.68;;;;;;;22.03;23.18;152816.16;5121300;28;20046;-67
2023/04/24 10:38:44;;;;;;;7.95;5.32;;;;;;;21.88;23.54;152779.97;5102618;28;20014;-67
2023/04/24 10:41:16;;;;;;;6.60;5.90;;;;;;;22.22;23.66;152865.31;5121998;28;20031;-68
2023/04/24 10:43:42;;;;;;;10.02;5.40;;;;;;;22.57;23.65;152952.00;5121418;28;20024;-67
2023/04/24 10:46:10;;;;;;;8.52;6.20;;;;;;;22.43;23.59;152915.78;5115482;28;20032;-66
2023/04/24 10:48:41;;;;;;;14.05;6.63;;;;;;;22.60;23.89;152958.47;5102305;28;20096;-65
2023/04/24 10:51:11;;;;;;;17.92;6.28;;;;;;;22.74;23.26;152995.97;5102106;28;20023;-67
2023/04/24 10:53:37;;;;;;;10.18;5.57;;;;;;;22.53;23.69;152942.97;5121788;28;20047;-65
2023/04/24 10:56:09;;;;;;;8.80;4.93;;;;;;;22.56;23.25;152950.72;5100836;28;20206;-66
2023/04/24 10:58:49;;;;;;;11.07;5.60;;;;;;;22.60;23.65;152959.75;5103538;28;20344;-67
2023/04/24 11:01:52;;;;;;;7.22;6.13;;;;;;;22.83;23.10;153016.66;5120194;28;20035;-67
2023/04/24 11:04:29;;;;;;;9.73;6.05;;;;;;;22.88;23.17;153029.63;5111062;28;20027;-68
2023/04/24 11:06:55;;;;;;;8.60;6.60;;;;;;;22.50;23.50;152933.88;5109509;28;20027;-67
2023/04/24 11:09:21;;;;;;;5.90;5.15;;;;;;;22.70;23.44;152985.66;5122120;28;20262;-67
2023/04/24 11:11:47;;;;;;;5.93;5.32;;;;;;;22.45;22.85;152922.25;5102000;28;20088;-68
2023/04/24 11:14:16;;;;;;;7.88;5.40;;;;;;;21.88;23.03;152779.97;5115048;28;20058;-69